sensor_id;sensor_type;location;lat;lon;timestamp;pressure;altitude;pressure_sealevel;temperature;humidity
18323;BME280;9287;49.456;11.064;2023-04-09T00:00:27;98891.06;;;7.12;100.00
18323;BME280;9287;49.456;11.064;2023-04-09T00:02:55;98892.66;;;7.27;100.00
18323;BME280;9287;49.456;11.064;2023-04-09T00:05:23;98889.78;;;7.32;100.00
18323;BME280;9287;49.456;11.064;2023-04-09T00:07:51;98895.22;;;7.32;100.00
18323;BME280;9287;49.456;11.064;2023-04-09T00:10:18;98888.19;;;7.31;100.00
18323;BME280;9287;49.456;11.064;2023-04-09T00:12:47;98888.78;;;7.28;100.00
18323;BME280;9287;49.456;11.064;2023-04-09T00:15:15;98881.53;;;7.37;100.00
18323;BME280;9287;49.456;11.064;2023-04-09T00:17:56;98882.53;;;7.41;100.00
18323;BME280;9287;49.456;11.064;2023-04-09T00:20:24;98882.88;;;7.48;100.00
18323;BME280;9287;49.456;11.064;2023-04-09T00:22:52;98878.56;;;7.25;100.00
18323;BME280;9287;49.456;11.064;2023-04-09T00:25:21;98880.53;;;7.33;100.00
18323;BME280;9287;49.456;11.064;2023-04-09T00:27:50;98878.81;;;7.15;100.00
18323;BME280;9287;49.456;11.064;2023-04-09T00:30:18;98883.38;;;7.28;100.00
18323;BME280;9287;49.456;11.064;2023-04-09T00:32:47;98886.59;;;7.30;100.00
18323;BME280;9287;49.456;11.064;2023-04-09T00:35:14;98881.78;;;7.27;100.00
18323;BME280;9287;49.456;11.064;2023-04-09T00:37:42;98885.63;;;7.26;100.00
18323;BME280;9287;49.456;11.064;2023-04-09T00:40:10;98876.38;;;7.13;100.00
18323;BME280;9287;49.456;11.064;2023-04-09T00:42:38;98881.03;;;7.13;100.00
18323;BME280;9287;49.456;11.064;2023-04-09T00:45:09;98887.56;;;7.12;100.00
18323;BME280;9287;49.456;11.064;2023-04-09T00:47:36;98882.00;;;7.17;100.00
18323;BME280;9287;49.456;11.064;2023-04-09T00:50:05;98880.00;;;7.22;100.00
18323;BME280;9287;49.456;11.064;2023-04-09T00:52:33;98878.19;;;7.18;100.00
18323;BME280;9287;49.456;11.064;2023-04-09T00:55:03;98883.63;;;7.18;100.00
18323;BME280;9287;49.456;11.064;2023-04-09T00:57:31;98882.63;;;7.14;100.00
18323;BME280;9287;49.456;11.064;2023-04-09T00:59:59;98883.38;;;7.06;100.00
18323;BME280;9287;49.456;11.064;2023-04-09T01:02:28;98883.47;;;7.01;100.00
18323;BME280;9287;49.456;11.064;2023-04-09T01:04:56;98878.56;;;7.03;100.00
18323;BME280;9287;49.456;11.064;2023-04-09T01:07:35;98875.94;;;6.97;100.00
18323;BME280;9287;49.456;11.064;2023-04-09T01:10:11;98881.66;;;7.10;100.00
18323;BME280;9287;49.456;11.064;2023-04-09T01:12:51;98872.50;;;7.06;100.00
18323;BME280;9287;49.456;11.064;2023-04-09T01:15:24;98879.06;;;7.05;100.00
18323;BME280;9287;49.456;11.064;2023-04-09T01:18:00;98875.09;;;7.11;100.00
18323;BME280;9287;49.456;11.064;2023-04-09T01:20:33;98871.41;;;7.07;100.00
18323;BME280;9287;49.456;11.064;2023-04-09T01:23:10;98878.44;;;7.08;100.00
18323;BME280;9287;49.456;11.064;2023-04-09T01:25:44;98866.81;;;6.93;100.00
18323;BME280;9287;49.456;11.064;2023-04-09T01:28:21;98865.22;;;6.92;100.00
18323;BME280;9287;49.456;11.064;2023-04-09T01:30:54;98871.63;;;6.96;100.00
18323;BME280;9287;49.456;11.064;2023-04-09T01:33:23;98868.78;;;7.02;100.00
18323;BME280;9287;49.456;11.064;2023-04-09T01:35:52;98881.50;;;6.92;100.00
18323;BME280;9287;49.456;11.064;2023-04-09T01:38:21;98877.66;;;6.93;100.00
18323;BME280;9287;49.456;11.064;2023-04-09T01:40:50;98867.78;;;6.97;100.00
18323;BME280;9287;49.456;11.064;2023-04-09T01:43:20;98876.94;;;7.02;100.00
18323;BME280;9287;49.456;11.064;2023-04-09T01:45:49;98871.47;;;6.79;100.00
18323;BME280;9287;49.456;11.064;2023-04-09T01:48:18;98868.41;;;6.94;100.00
18323;BME280;9287;49.456;11.064;2023-04-09T01:50:47;98871.00;;;6.99;100.00
18323;BME280;9287;49.456;11.064;2023-04-09T01:53:15;98872.13;;;6.98;100.00
18323;BME280;9287;49.456;11.064;2023-04-09T01:55:43;98871.63;;;6.96;100.00
18323;BME280;9287;49.456;11.064;2023-04-09T01:58:11;98883.72;;;6.90;100.00
18323;BME280;9287;49.456;11.064;2023-04-09T02:00:45;98878.09;;;6.87;100.00
18323;BME280;9287;49.456;11.064;2023-04-09T02:03:18;98873.69;;;6.77;100.00
18323;BME280;9287;49.456;11.064;2023-04-09T02:05:52;98882.56;;;6.69;100.00
18323;BME280;9287;49.456;11.064;2023-04-09T02:08:22;98882.56;;;6.69;100.00
18323;BME280;9287;49.456;11.064;2023-04-09T02:10:55;98888.59;;;6.66;100.00
18323;BME280;9287;49.456;11.064;2023-04-09T02:13:24;98884.75;;;6.81;100.00
18323;BME280;9287;49.456;11.064;2023-04-09T02:15:55;98883.44;;;6.78;100.00
18323;BME280;9287;49.456;11.064;2023-04-09T02:18:25;98889.00;;;6.73;100.00
18323;BME280;9287;49.456;11.064;2023-04-09T02:20:54;98886.16;;;6.78;100.00
18323;BME280;9287;49.456;11.064;2023-04-09T02:23:22;98882.66;;;6.64;100.00
18323;BME280;9287;49.456;11.064;2023-04-09T02:25:51;98884.38;;;6.60;100.00
18323;BME280;9287;49.456;11.064;2023-04-09T02:28:19;98885.47;;;6.59;100.00
18323;BME280;9287;49.456;11.064;2023-04-09T02:30:47;98888.81;;;6.56;100.00
18323;BME280;9287;49.456;11.064;2023-04-09T02:33:16;98889.44;;;6.53;100.00
18323;BME280;9287;49.456;11.064;2023-04-09T02:35:43;98890.84;;;6.37;100.00
18323;BME280;9287;49.456;11.064;2023-04-09T02:38:11;98883.69;;;6.41;100.00
18323;BME280;9287;49.456;11.064;2023-04-09T02:40:41;98888.81;;;6.42;100.00
18323;BME280;9287;49.456;11.064;2023-04-09T02:43:09;98886.75;;;6.39;100.00
18323;BME280;9287;49.456;11.064;2023-04-09T02:45:37;98881.59;;;6.38;100.00
18323;BME280;9287;49.456;11.064;2023-04-09T02:48:05;98883.41;;;6.28;100.00
18323;BME280;9287;49.456;11.064;2023-04-09T02:50:34;98883.41;;;6.28;100.00
18323;BME280;9287;49.456;11.064;2023-04-09T02:53:01;98887.81;;;6.24;100.00
18323;BME280;9287;49.456;11.064;2023-04-09T02:55:30;98883.72;;;6.13;100.00
18323;BME280;9287;49.456;11.064;2023-04-09T02:57:57;98887.81;;;6.11;100.00
18323;BME280;9287;49.456;11.064;2023-04-09T03:00:25;98875.66;;;6.08;100.00
18323;BME280;9287;49.456;11.064;2023-04-09T03:02:53;98875.78;;;6.03;100.00
18323;BME280;9287;49.456;11.064;2023-04-09T03:05:21;98881.31;;;5.98;100.00
18323;BME280;9287;49.456;11.064;2023-04-09T03:07:50;98879.41;;;5.99;100.00
18323;BME280;9287;49.456;11.064;2023-04-09T03:10:18;98870.13;;;5.86;100.00
18323;BME280;9287;49.456;11.064;2023-04-09T03:12:46;98868.50;;;5.85;100.00
18323;BME280;9287;49.456;11.064;2023-04-09T03:15:13;98873.94;;;5.85;100.00
18323;BME280;9287;49.456;11.064;2023-04-09T03:17:42;98872.72;;;5.77;100.00
18323;BME280;9287;49.456;11.064;2023-04-09T03:20:10;98870.28;;;5.76;100.00
18323;BME280;9287;49.456;11.064;2023-04-09T03:22:38;98877.53;;;5.67;100.00
18323;BME280;9287;49.456;11.064;2023-04-09T03:25:08;98874.81;;;5.67;100.00
18323;BME280;9287;49.456;11.064;2023-04-09T03:27:36;98883.09;;;5.56;100.00
18323;BME280;9287;49.456;11.064;2023-04-09T03:30:04;98879.88;;;5.54;100.00
18323;BME280;9287;49.456;11.064;2023-04-09T03:32:32;98876.50;;;5.63;100.00
18323;BME280;9287;49.456;11.064;2023-04-09T03:35:00;98879.50;;;5.61;100.00
18323;BME280;9287;49.456;11.064;2023-04-09T03:37:27;98887.78;;;5.70;100.00
18323;BME280;9287;49.456;11.064;2023-04-09T03:39:55;98891.16;;;5.62;100.00
18323;BME280;9287;49.456;11.064;2023-04-09T03:42:24;98874.31;;;5.65;100.00
18323;BME280;9287;49.456;11.064;2023-04-09T03:44:52;98882.59;;;5.54;100.00
18323;BME280;9287;49.456;11.064;2023-04-09T03:47:20;98895.38;;;5.54;100.00
18323;BME280;9287;49.456;11.064;2023-04-09T03:49:48;98887.53;;;5.52;100.00
18323;BME280;9287;49.456;11.064;2023-04-09T03:52:15;98885.91;;;5.51;100.00
18323;BME280;9287;49.456;11.064;2023-04-09T03:54:43;98890.91;;;5.44;100.00
18323;BME280;9287;49.456;11.064;2023-04-09T03:57:11;98888.28;;;5.39;100.00
18323;BME280;9287;49.456;11.064;2023-04-09T03:59:40;98898.69;;;5.32;100.00
18323;BME280;9287;49.456;11.064;2023-04-09T04:02:07;98893.94;;;5.24;100.00
18323;BME280;9287;49.456;11.064;2023-04-09T04:04:35;98902.06;;;5.24;100.00
18323;BME280;9287;49.456;11.064;2023-04-09T04:07:03;98895.63;;;5.20;100.00
18323;BME280;9287;49.456;11.064;2023-04-09T04:09:32;98893.59;;;5.12;100.00
18323;BME280;9287;49.456;11.064;2023-04-09T04:12:00;98900.25;;;5.19;100.00
18323;BME280;9287;49.456;11.064;2023-04-09T04:14:28;98903.25;;;5.18;100.00
18323;BME280;9287;49.456;11.064;2023-04-09T04:16:58;98896.06;;;5.08;100.00
18323;BME280;9287;49.456;11.064;2023-04-09T04:19:26;98902.38;;;5.04;100.00
18323;BME280;9287;49.456;11.064;2023-04-09T04:21:53;98905.16;;;4.99;100.00
18323;BME280;9287;49.456;11.064;2023-04-09T04:24:21;98905.38;;;5.02;100.00
18323;BME280;9287;49.456;11.064;2023-04-09T04:26:49;98906.25;;;4.98;100.00
18323;BME280;9287;49.456;11.064;2023-04-09T04:29:17;98910.59;;;4.99;100.00
18323;BME280;9287;49.456;11.064;2023-04-09T04:31:45;98914.50;;;4.87;100.00
18323;BME280;9287;49.456;11.064;2023-04-09T04:34:14;98913.34;;;4.94;100.00
18323;BME280;9287;49.456;11.064;2023-04-09T04:36:42;98919.94;;;4.87;100.00
18323;BME280;9287;49.456;11.064;2023-04-09T04:39:10;98922.63;;;4.87;100.00
18323;BME280;9287;49.456;11.064;2023-04-09T04:41:38;98926.00;;;4.79;100.00
18323;BME280;9287;49.456;11.064;2023-04-09T04:44:06;98920.59;;;4.79;100.00
18323;BME280;9287;49.456;11.064;2023-04-09T04:46:34;98923.31;;;4.79;100.00
18323;BME280;9287;49.456;11.064;2023-04-09T04:49:01;98926.06;;;4.74;100.00
18323;BME280;9287;49.456;11.064;2023-04-09T04:51:31;98930.66;;;4.74;100.00
18323;BME280;9287;49.456;11.064;2023-04-09T04:53:58;98925.03;;;4.70;100.00
18323;BME280;9287;49.456;11.064;2023-04-09T04:56:26;98931.63;;;4.64;100.00
18323;BME280;9287;49.456;11.064;2023-04-09T04:58:54;98932.84;;;4.72;100.00
18323;BME280;9287;49.456;11.064;2023-04-09T05:01:22;98935.41;;;4.63;100.00
18323;BME280;9287;49.456;11.064;2023-04-09T05:03:50;98937.72;;;4.51;100.00
18323;BME280;9287;49.456;11.064;2023-04-09T05:06:19;98931.16;;;4.57;100.00
18323;BME280;9287;49.456;11.064;2023-04-09T05:08:48;98930.00;;;4.63;100.00
18323;BME280;9287;49.456;11.064;2023-04-09T05:11:16;98924.13;;;4.56;100.00
18323;BME280;9287;49.456;11.064;2023-04-09T05:13:44;98931.16;;;4.57;100.00
18323;BME280;9287;49.456;11.064;2023-04-09T05:16:16;98931.72;;;4.54;100.00
18323;BME280;9287;49.456;11.064;2023-04-09T05:18:44;98937.59;;;4.61;100.00
18323;BME280;9287;49.456;11.064;2023-04-09T05:21:12;98930.59;;;4.60;100.00
18323;BME280;9287;49.456;11.064;2023-04-09T05:23:40;98942.50;;;4.59;100.00
18323;BME280;9287;49.456;11.064;2023-04-09T05:26:09;98940.25;;;4.66;100.00
18323;BME280;9287;49.456;11.064;2023-04-09T05:28:37;98939.66;;;4.69;100.00
18323;BME280;9287;49.456;11.064;2023-04-09T05:31:05;98938.50;;;4.75;100.00
18323;BME280;9287;49.456;11.064;2023-04-09T05:33:38;98942.06;;;4.71;100.00
18323;BME280;9287;49.456;11.064;2023-04-09T05:36:06;98940.34;;;4.80;100.00
18323;BME280;9287;49.456;11.064;2023-04-09T05:38:34;98936.09;;;4.74;100.00
18323;BME280;9287;49.456;11.064;2023-04-09T05:41:02;98940.53;;;4.65;100.00
18323;BME280;9287;49.456;11.064;2023-04-09T05:43:31;98938.41;;;4.62;100.00
18323;BME280;9287;49.456;11.064;2023-04-09T05:45:59;98941.22;;;4.75;100.00
18323;BME280;9287;49.456;11.064;2023-04-09T05:48:27;98938.97;;;4.82;100.00
18323;BME280;9287;49.456;11.064;2023-04-09T05:50:54;98942.19;;;4.84;100.00
18323;BME280;9287;49.456;11.064;2023-04-09T05:53:25;98939.47;;;4.84;100.00
18323;BME280;9287;49.456;11.064;2023-04-09T05:55:53;98949.41;;;4.89;100.00
18323;BME280;9287;49.456;11.064;2023-04-09T05:58:21;98938.66;;;5.03;100.00
18323;BME280;9287;49.456;11.064;2023-04-09T06:00:51;98947.28;;;5.05;100.00
18323;BME280;9287;49.456;11.064;2023-04-09T06:03:19;98948.84;;;5.11;100.00
18323;BME280;9287;49.456;11.064;2023-04-09T06:05:47;98947.66;;;4.98;100.00
18323;BME280;9287;49.456;11.064;2023-04-09T06:08:15;98952.00;;;5.18;100.00
18323;BME280;9287;49.456;11.064;2023-04-09T06:10:42;98951.38;;;5.21;100.00
18323;BME280;9287;49.456;11.064;2023-04-09T06:13:10;98953.38;;;5.34;100.00
18323;BME280;9287;49.456;11.064;2023-04-09T06:15:38;98952.09;;;5.45;100.00
18323;BME280;9287;49.456;11.064;2023-04-09T06:18:08;98952.38;;;5.63;100.00
18323;BME280;9287;49.456;11.064;2023-04-09T06:20:35;98949.47;;;5.40;100.00
18323;BME280;9287;49.456;11.064;2023-04-09T06:23:04;98957.88;;;5.57;100.00
18323;BME280;9287;49.456;11.064;2023-04-09T06:25:31;98958.09;;;5.42;100.00
18323;BME280;9287;49.456;11.064;2023-04-09T06:27:59;98967.59;;;5.58;100.00
18323;BME280;9287;49.456;11.064;2023-04-09T06:30:28;98952.81;;;5.70;100.00
18323;BME280;9287;49.456;11.064;2023-04-09T06:32:57;98957.13;;;6.03;100.00
18323;BME280;9287;49.456;11.064;2023-04-09T06:35:26;98953.94;;;6.42;100.00
18323;BME280;9287;49.456;11.064;2023-04-09T06:37:54;98965.25;;;8.02;100.00
18323;BME280;9287;49.456;11.064;2023-04-09T06:40:22;98958.94;;;9.37;100.00
18323;BME280;9287;49.456;11.064;2023-04-09T06:42:50;98967.25;;;11.57;95.31
18323;BME280;9287;49.456;11.064;2023-04-09T06:45:17;98966.31;;;11.53;84.87
18323;BME280;9287;49.456;11.064;2023-04-09T06:47:45;98973.09;;;11.05;83.15
18323;BME280;9287;49.456;11.064;2023-04-09T06:50:13;98968.63;;;12.17;74.93
18323;BME280;9287;49.456;11.064;2023-04-09T06:52:43;98977.03;;;11.79;72.82
18323;BME280;9287;49.456;11.064;2023-04-09T06:55:10;98967.44;;;13.52;66.04
18323;BME280;9287;49.456;11.064;2023-04-09T06:57:39;98982.16;;;15.25;56.12
18323;BME280;9287;49.456;11.064;2023-04-09T07:00:08;98977.81;;;16.17;50.00
18323;BME280;9287;49.456;11.064;2023-04-09T07:02:36;98974.25;;;17.34;47.91
18323;BME280;9287;49.456;11.064;2023-04-09T07:05:05;98965.44;;;17.85;45.56
18323;BME280;9287;49.456;11.064;2023-04-09T07:07:33;98974.31;;;18.01;45.24
18323;BME280;9287;49.456;11.064;2023-04-09T07:10:02;98969.13;;;17.63;44.98
18323;BME280;9287;49.456;11.064;2023-04-09T07:12:33;98974.75;;;19.39;41.61
18323;BME280;9287;49.456;11.064;2023-04-09T07:15:02;98968.44;;;19.42;41.72
18323;BME280;9287;49.456;11.064;2023-04-09T07:17:31;98972.44;;;20.57;39.14
18323;BME280;9287;49.456;11.064;2023-04-09T07:19:59;98971.34;;;17.54;44.29
18323;BME280;9287;49.456;11.064;2023-04-09T07:22:28;98967.19;;;18.74;42.38
18323;BME280;9287;49.456;11.064;2023-04-09T07:24:56;98969.66;;;18.87;41.39
18323;BME280;9287;49.456;11.064;2023-04-09T07:27:26;98980.44;;;18.58;40.53
18323;BME280;9287;49.456;11.064;2023-04-09T07:29:54;98974.78;;;19.46;39.33
18323;BME280;9287;49.456;11.064;2023-04-09T07:32:23;98987.16;;;19.05;40.25
18323;BME280;9287;49.456;11.064;2023-04-09T07:34:52;98976.09;;;19.05;39.45
18323;BME280;9287;49.456;11.064;2023-04-09T07:37:20;98973.56;;;19.40;39.03
18323;BME280;9287;49.456;11.064;2023-04-09T07:39:49;98989.59;;;19.10;40.41
18323;BME280;9287;49.456;11.064;2023-04-09T07:42:16;98978.44;;;18.99;41.05
18323;BME280;9287;49.456;11.064;2023-04-09T07:44:45;98985.28;;;19.16;39.65
18323;BME280;9287;49.456;11.064;2023-04-09T07:47:13;98975.88;;;18.36;41.22
18323;BME280;9287;49.456;11.064;2023-04-09T07:49:41;98977.88;;;18.35;40.73
18323;BME280;9287;49.456;11.064;2023-04-09T07:52:09;98987.63;;;19.10;39.99
18323;BME280;9287;49.456;11.064;2023-04-09T07:54:37;98982.09;;;19.76;38.24
18323;BME280;9287;49.456;11.064;2023-04-09T07:57:04;98987.31;;;19.95;38.55
18323;BME280;9287;49.456;11.064;2023-04-09T07:59:32;98982.78;;;19.52;38.56
18323;BME280;9287;49.456;11.064;2023-04-09T08:02:03;98987.06;;;18.91;39.38
18323;BME280;9287;49.456;11.064;2023-04-09T08:04:30;98986.03;;;19.68;39.14
18323;BME280;9287;49.456;11.064;2023-04-09T08:06:58;98984.09;;;18.66;40.85
18323;BME280;9287;49.456;11.064;2023-04-09T08:09:26;98991.84;;;18.94;40.39
18323;BME280;9287;49.456;11.064;2023-04-09T08:11:54;98988.47;;;19.87;39.21
18323;BME280;9287;49.456;11.064;2023-04-09T08:14:22;98982.94;;;22.00;35.57
18323;BME280;9287;49.456;11.064;2023-04-09T08:16:50;98981.38;;;21.92;35.00
18323;BME280;9287;49.456;11.064;2023-04-09T08:19:19;98978.38;;;21.01;35.84
18323;BME280;9287;49.456;11.064;2023-04-09T08:21:47;98976.75;;;23.00;33.30
18323;BME280;9287;49.456;11.064;2023-04-09T08:24:15;98981.44;;;20.14;36.58
18323;BME280;9287;49.456;11.064;2023-04-09T08:26:43;98992.69;;;21.07;36.57
18323;BME280;9287;49.456;11.064;2023-04-09T08:29:12;98981.94;;;22.39;34.48
18323;BME280;9287;49.456;11.064;2023-04-09T08:31:40;98975.34;;;22.70;33.80
18323;BME280;9287;49.456;11.064;2023-04-09T08:34:08;98967.63;;;22.37;34.49
18323;BME280;9287;49.456;11.064;2023-04-09T08:36:37;98979.97;;;24.38;32.05
18323;BME280;9287;49.456;11.064;2023-04-09T08:39:05;98976.03;;;21.21;35.44
18323;BME280;9287;49.456;11.064;2023-04-09T08:41:33;98973.38;;;22.12;34.44
18323;BME280;9287;49.456;11.064;2023-04-09T08:44:02;98969.59;;;20.32;35.94
18323;BME280;9287;49.456;11.064;2023-04-09T08:46:30;98973.41;;;21.94;33.81
18323;BME280;9287;49.456;11.064;2023-04-09T08:48:58;98975.00;;;21.95;34.07
18323;BME280;9287;49.456;11.064;2023-04-09T08:51:25;98975.53;;;22.49;33.08
18323;BME280;9287;49.456;11.064;2023-04-09T08:53:56;98976.78;;;20.61;36.23
18323;BME280;9287;49.456;11.064;2023-04-09T08:56:29;98978.41;;;21.26;35.71
18323;BME280;9287;49.456;11.064;2023-04-09T08:58:57;98972.44;;;20.96;35.61
18323;BME280;9287;49.456;11.064;2023-04-09T09:01:27;98975.59;;;20.44;36.00
18323;BME280;9287;49.456;11.064;2023-04-09T09:03:57;98978.06;;;19.56;37.46
18323;BME280;9287;49.456;11.064;2023-04-09T09:06:27;98967.19;;;20.20;36.73
18323;BME280;9287;49.456;11.064;2023-04-09T09:09:01;98970.06;;;19.47;37.02
18323;BME280;9287;49.456;11.064;2023-04-09T09:11:30;98969.50;;;17.31;40.33
18323;BME280;9287;49.456;11.064;2023-04-09T09:13:59;98975.38;;;19.11;37.30
18323;BME280;9287;49.456;11.064;2023-04-09T09:16:28;98962.44;;;21.59;34.31
18323;BME280;9287;49.456;11.064;2023-04-09T09:18:56;98975.28;;;18.97;37.79
18323;BME280;9287;49.456;11.064;2023-04-09T09:21:27;98977.41;;;18.70;38.28
18323;BME280;9287;49.456;11.064;2023-04-09T09:23:55;98976.72;;;20.26;36.28
18323;BME280;9287;49.456;11.064;2023-04-09T09:26:26;98969.69;;;22.29;33.10
18323;BME280;9287;49.456;11.064;2023-04-09T09:28:55;98972.59;;;22.04;32.52
18323;BME280;9287;49.456;11.064;2023-04-09T09:31:24;98971.09;;;23.07;32.60
18323;BME280;9287;49.456;11.064;2023-04-09T09:33:52;98965.38;;;23.21;31.31
18323;BME280;9287;49.456;11.064;2023-04-09T09:36:30;98958.50;;;25.51;28.19
18323;BME280;9287;49.456;11.064;2023-04-09T09:39:00;98961.72;;;21.05;33.30
18323;BME280;9287;49.456;11.064;2023-04-09T09:41:32;98960.66;;;22.07;32.32
18323;BME280;9287;49.456;11.064;2023-04-09T09:43:59;98962.69;;;23.14;31.14
18323;BME280;9287;49.456;11.064;2023-04-09T09:46:30;98970.47;;;20.89;34.74
18323;BME280;9287;49.456;11.064;2023-04-09T09:49:00;98963.44;;;23.55;30.57
18323;BME280;9287;49.456;11.064;2023-04-09T09:51:31;98959.31;;;23.71;29.85
18323;BME280;9287;49.456;11.064;2023-04-09T09:54:02;98964.53;;;23.99;29.22
18323;BME280;9287;49.456;11.064;2023-04-09T09:56:35;98959.31;;;22.88;29.28
18323;BME280;9287;49.456;11.064;2023-04-09T09:59:06;98968.38;;;23.00;30.22
18323;BME280;9287;49.456;11.064;2023-04-09T10:01:37;98960.16;;;21.25;31.66
18323;BME280;9287;49.456;11.064;2023-04-09T10:04:12;98966.31;;;19.18;34.79
18323;BME280;9287;49.456;11.064;2023-04-09T10:06:42;98968.78;;;18.35;36.81
18323;BME280;9287;49.456;11.064;2023-04-09T10:09:11;98960.78;;;18.63;36.21
18323;BME280;9287;49.456;11.064;2023-04-09T10:11:40;98966.84;;;16.21;40.38
18323;BME280;9287;49.456;11.064;2023-04-09T10:14:11;98955.19;;;17.82;38.33
18323;BME280;9287;49.456;11.064;2023-04-09T10:16:40;98945.19;;;18.07;37.45
18323;BME280;9287;49.456;11.064;2023-04-09T10:19:08;98940.97;;;19.12;36.06
18323;BME280;9287;49.456;11.064;2023-04-09T10:21:44;98937.75;;;19.69;35.13
18323;BME280;9287;49.456;11.064;2023-04-09T10:24:14;98933.47;;;19.13;35.40
18323;BME280;9287;49.456;11.064;2023-04-09T10:26:44;98932.88;;;18.42;35.45
18323;BME280;9287;49.456;11.064;2023-04-09T10:29:13;98928.41;;;18.67;35.75
18323;BME280;9287;49.456;11.064;2023-04-09T10:31:50;98925.44;;;17.72;36.86
18323;BME280;9287;49.456;11.064;2023-04-09T10:34:20;98934.16;;;18.11;36.50
18323;BME280;9287;49.456;11.064;2023-04-09T10:36:50;98941.56;;;19.46;34.31
18323;BME280;9287;49.456;11.064;2023-04-09T10:39:19;98936.78;;;18.34;35.79
18323;BME280;9287;49.456;11.064;2023-04-09T10:41:49;98939.06;;;16.52;38.55
18323;BME280;9287;49.456;11.064;2023-04-09T10:44:20;98935.41;;;16.67;38.49
18323;BME280;9287;49.456;11.064;2023-04-09T10:46:51;98926.50;;;17.04;36.91
18323;BME280;9287;49.456;11.064;2023-04-09T10:49:20;98931.38;;;17.14;37.06
18323;BME280;9287;49.456;11.064;2023-04-09T10:51:53;98938.50;;;15.78;39.78
18323;BME280;9287;49.456;11.064;2023-04-09T10:54:42;98934.09;;;15.19;40.00
18323;BME280;9287;49.456;11.064;2023-04-09T10:57:19;98926.50;;;14.46;40.70
18323;BME280;9287;49.456;11.064;2023-04-09T10:59:50;98928.94;;;14.20;40.93
18323;BME280;9287;49.456;11.064;2023-04-09T11:02:54;98926.97;;;13.61;38.36
18323;BME280;9287;49.456;11.064;2023-04-09T11:05:31;98925.63;;;14.93;35.98
18323;BME280;9287;49.456;11.064;2023-04-09T11:08:05;98926.63;;;17.11;33.58
18323;BME280;9287;49.456;11.064;2023-04-09T11:10:33;98926.91;;;16.80;35.55
18323;BME280;9287;49.456;11.064;2023-04-09T11:13:02;98921.50;;;15.95;35.69
18323;BME280;9287;49.456;11.064;2023-04-09T11:15:31;98919.31;;;16.96;34.71
18323;BME280;9287;49.456;11.064;2023-04-09T11:18:00;98918.28;;;17.37;33.57
18323;BME280;9287;49.456;11.064;2023-04-09T11:20:29;98915.84;;;16.76;34.52
18323;BME280;9287;49.456;11.064;2023-04-09T11:22:58;98933.06;;;15.82;35.43
18323;BME280;9287;49.456;11.064;2023-04-09T11:25:27;98922.81;;;15.44;35.29
18323;BME280;9287;49.456;11.064;2023-04-09T11:27:54;98921.22;;;15.43;36.06
18323;BME280;9287;49.456;11.064;2023-04-09T11:30:24;98906.94;;;17.16;34.10
18323;BME280;9287;49.456;11.064;2023-04-09T11:32:52;98898.66;;;17.16;32.73
18323;BME280;9287;49.456;11.064;2023-04-09T11:35:21;98911.91;;;15.86;34.82
18323;BME280;9287;49.456;11.064;2023-04-09T11:37:49;98915.34;;;14.90;35.82
18323;BME280;9287;49.456;11.064;2023-04-09T11:40:19;98916.28;;;14.62;36.67
18323;BME280;9287;49.456;11.064;2023-04-09T11:42:48;98916.44;;;14.38;37.43
18323;BME280;9287;49.456;11.064;2023-04-09T11:45:17;98908.31;;;14.57;37.20
18323;BME280;9287;49.456;11.064;2023-04-09T11:47:46;98908.28;;;14.89;37.04
18323;BME280;9287;49.456;11.064;2023-04-09T11:50:14;98906.31;;;16.24;34.84
18323;BME280;9287;49.456;11.064;2023-04-09T11:52:43;98907.00;;;17.50;33.32
18323;BME280;9287;49.456;11.064;2023-04-09T11:55:21;98898.09;;;17.63;33.53
18323;BME280;9287;49.456;11.064;2023-04-09T11:57:51;98892.59;;;18.41;32.82
18323;BME280;9287;49.456;11.064;2023-04-09T12:00:19;98888.84;;;18.63;32.64
18323;BME280;9287;49.456;11.064;2023-04-09T12:02:50;98902.59;;;18.12;32.51
18323;BME280;9287;49.456;11.064;2023-04-09T12:05:23;98897.78;;;17.38;34.06
18323;BME280;9287;49.456;11.064;2023-04-09T12:07:56;98893.25;;;16.44;35.28
18323;BME280;9287;49.456;11.064;2023-04-09T12:10:26;98907.97;;;17.31;34.06
18323;BME280;9287;49.456;11.064;2023-04-09T12:12:54;98898.00;;;18.27;32.82
18323;BME280;9287;49.456;11.064;2023-04-09T12:15:30;98899.75;;;18.05;32.70
18323;BME280;9287;49.456;11.064;2023-04-09T12:18:00;98900.50;;;17.98;32.43
18323;BME280;9287;49.456;11.064;2023-04-09T12:20:30;98900.34;;;16.45;34.62
18323;BME280;9287;49.456;11.064;2023-04-09T12:22:59;98899.19;;;15.43;35.58
18323;BME280;9287;49.456;11.064;2023-04-09T12:25:29;98902.44;;;14.75;36.97
18323;BME280;9287;49.456;11.064;2023-04-09T12:27:57;98895.13;;;14.98;37.47
18323;BME280;9287;49.456;11.064;2023-04-09T12:30:25;98896.94;;;15.10;36.57
18323;BME280;9287;49.456;11.064;2023-04-09T12:32:53;98899.84;;;14.82;36.96
18323;BME280;9287;49.456;11.064;2023-04-09T12:35:22;98893.78;;;14.92;36.98
18323;BME280;9287;49.456;11.064;2023-04-09T12:37:50;98893.81;;;15.11;37.13
18323;BME280;9287;49.456;11.064;2023-04-09T12:40:18;98888.91;;;15.78;35.87
18323;BME280;9287;49.456;11.064;2023-04-09T12:42:47;98890.78;;;15.16;37.10
18323;BME280;9287;49.456;11.064;2023-04-09T12:45:16;98881.72;;;16.16;35.88
18323;BME280;9287;49.456;11.064;2023-04-09T12:47:44;98882.63;;;16.46;35.52
18323;BME280;9287;49.456;11.064;2023-04-09T12:50:13;98870.13;;;16.26;36.35
18323;BME280;9287;49.456;11.064;2023-04-09T12:52:43;98875.81;;;14.79;38.04
18323;BME280;9287;49.456;11.064;2023-04-09T12:55:12;98879.41;;;14.98;38.04
18323;BME280;9287;49.456;11.064;2023-04-09T12:57:42;98882.41;;;15.28;37.22
18323;BME280;9287;49.456;11.064;2023-04-09T13:00:11;98876.09;;;14.74;38.48
18323;BME280;9287;49.456;11.064;2023-04-09T13:02:39;98881.00;;;14.65;38.71
18323;BME280;9287;49.456;11.064;2023-04-09T13:05:07;98873.81;;;14.95;38.60
18323;BME280;9287;49.456;11.064;2023-04-09T13:07:35;98875.19;;;14.85;38.82
18323;BME280;9287;49.456;11.064;2023-04-09T13:10:06;98866.41;;;14.80;39.08